Terminal Aerodrome Forecast
Issued by NWS

Home | Current Version | Previous Version | Text Only | Print | Product List | Glossary On
Versions: 1 2 3 4 5 6 7 8 9 10 11 12 13 14 15 16 17 18
629
FTUS43 KAPX 251305 AAA
TAFPLN
TAF AMD
KPLN 251305Z 2513/2612 VRB03KT 3SM BR OVC002
     FM251530 05006KT P6SM SCT150
     FM252300 08006KT P6SM SCT250
     FM260400 12004KT P6SM SHRA OVC080
     FM260600 12005KT P6SM SHRA OVC020=

USA.gov is the U.S. government's official web portal to all federal, state and local government web resources and services.